createdAt,value
2023-01-10T00:00:09.103Z,97031.19
2023-01-10T00:05:11.047Z,97031.22
2023-01-10T00:10:14.151Z,97040.91
2023-01-10T00:15:16.065Z,97053.97
2023-01-10T00:20:18.193Z,97060.25
2023-01-10T00:25:21.297Z,97067.81
2023-01-10T00:30:23.237Z,97071.22
2023-01-10T00:35:26.339Z,97076.69
2023-01-10T00:40:28.272Z,97099.22
2023-01-10T00:45:30.812Z,97101.63
2023-01-10T00:50:32.711Z,97108.22
2023-01-10T00:55:36.233Z,97115.28
2023-01-10T01:00:39.045Z,97131.88
2023-01-10T01:05:45.297Z,97143.28
2023-01-10T01:10:47.212Z,97144.56
2023-01-10T01:15:50.210Z,97148.09
2023-01-10T01:20:57.121Z,97165.03
2023-01-10T01:25:59.034Z,97178.50
2023-01-10T01:31:07.656Z,97191.03
2023-01-10T01:36:13.185Z,97199.22
2023-01-10T01:41:33.524Z,97203.09
2023-01-10T01:46:39.125Z,97208.59
2023-01-10T01:51:41.104Z,97212.78
2023-01-10T01:56:51.909Z,97225.13
2023-01-10T02:01:59.387Z,97232.22
2023-01-10T02:07:01.322Z,97238.81
2023-01-10T02:12:03.631Z,97242.19
2023-01-10T02:17:09.012Z,97239.78
2023-01-10T02:22:33.856Z,97240.59
2023-01-10T02:27:41.408Z,97245.56
2023-01-10T02:33:18.795Z,97256.84
2023-01-10T02:38:37.068Z,97264.56
2023-01-10T02:43:46.195Z,97281.63
2023-01-10T02:48:48.029Z,97279.06
2023-01-10T02:54:19.510Z,97289.34
2023-01-10T02:59:21.275Z,97294.38
2023-01-10T03:05:00.654Z,97310.31
2023-01-10T03:10:09.018Z,97319.38
2023-01-10T03:15:13.601Z,97320.84
2023-01-10T03:20:18.029Z,97334.91
2023-01-10T03:25:23.467Z,97351.97
2023-01-10T03:30:43.996Z,97357.94
2023-01-10T03:36:04.093Z,97372.53
2023-01-10T03:41:13.950Z,97385.41
2023-01-10T03:46:29.740Z,97396.38
2023-01-10T03:51:32.845Z,97399.75
2023-01-10T03:56:51.801Z,97411.81
2023-01-10T04:01:55.528Z,97414.94
2023-01-10T04:06:57.417Z,97418.84
2023-01-10T04:11:59.188Z,97428.97
2023-01-10T04:17:01.013Z,97439.44
2023-01-10T04:22:03.319Z,97457.59
2023-01-10T04:27:05.315Z,97455.78
2023-01-10T04:32:07.196Z,97469.09
2023-01-10T04:37:08.970Z,97474.25
2023-01-10T04:42:10.949Z,97480.34
2023-01-10T04:47:12.767Z,97488.06
2023-01-10T04:52:14.603Z,97494.25
2023-01-10T04:57:16.361Z,97501.72
2023-01-10T05:02:18.296Z,97510.53
2023-01-10T05:07:20.097Z,97519.75
2023-01-10T05:12:21.861Z,97538.16
2023-01-10T05:17:23.696Z,97541.53
2023-01-10T05:22:25.645Z,97547.19
2023-01-10T05:27:27.462Z,97556.69
2023-01-10T05:32:29.825Z,97568.66
2023-01-10T05:37:31.649Z,97578.00
2023-01-10T05:42:33.479Z,97582.88
2023-01-10T05:47:35.254Z,97593.97
2023-01-10T05:52:37.072Z,97594.97
2023-01-10T05:57:38.916Z,97606.53
2023-01-10T06:02:40.877Z,97615.22
2023-01-10T06:07:42.991Z,97624.69
2023-01-10T06:12:44.983Z,97637.84
2023-01-10T06:17:46.824Z,97650.31
2023-01-10T06:22:48.675Z,97660.88
2023-01-10T06:27:50.527Z,97667.66
2023-01-10T06:32:52.373Z,97677.69
2023-01-10T06:37:54.242Z,97684.75
2023-01-10T06:42:56.148Z,97702.22
2023-01-10T06:47:58.046Z,97713.47
2023-01-10T06:53:02.246Z,97725.50
2023-01-10T06:58:05.117Z,97725.41
2023-01-10T07:03:07.929Z,97730.41
2023-01-10T07:08:09.784Z,97741.78
2023-01-10T07:13:11.579Z,97753.97
2023-01-10T07:18:13.375Z,97766.69
2023-01-10T07:23:15.273Z,97773.22
2023-01-10T07:28:17.093Z,97794.38
2023-01-10T07:33:18.904Z,97801.53
2023-01-10T07:38:20.742Z,97811.97
2023-01-10T07:43:22.590Z,97821.22
2023-01-10T07:48:24.569Z,97827.16
2023-01-10T07:53:27.747Z,97840.56
2023-01-10T07:58:29.712Z,97848.03
2023-01-10T08:03:33.306Z,97854.41
2023-01-10T08:08:35.358Z,97857.25
2023-01-10T08:13:37.273Z,97866.22
2023-01-10T08:18:42.471Z,97876.50
2023-01-10T08:23:44.280Z,97885.19
2023-01-10T08:28:46.146Z,97894.66
2023-01-10T08:33:48.017Z,97907.25
2023-01-10T08:38:51.077Z,97915.97
2023-01-10T08:43:53.036Z,97923.97
2023-01-10T08:48:54.917Z,97937.00
2023-01-10T08:53:56.808Z,97935.78
2023-01-10T08:58:58.653Z,97941.31
2023-01-10T09:04:00.495Z,97955.16
2023-01-10T09:09:02.375Z,97955.41
2023-01-10T09:14:04.249Z,97963.31
2023-01-10T09:19:06.132Z,97972.53
2023-01-10T09:24:08.068Z,97984.06
2023-01-10T09:29:09.910Z,97995.47
2023-01-10T09:34:13.014Z,98003.75
2023-01-10T09:39:14.881Z,98001.19
2023-01-10T09:44:36.919Z,98018.38
2023-01-10T09:50:06.577Z,98023.94
2023-01-10T09:55:36.994Z,98019.34
2023-01-10T10:00:41.262Z,98011.19
2023-01-10T10:05:43.707Z,98009.97
2023-01-10T10:11:01.406Z,98007.13
2023-01-10T10:16:30.946Z,98004.53
2023-01-10T10:22:06.068Z,98012.53
2023-01-10T10:27:13.771Z,98022.59
2023-01-10T10:32:36.834Z,98029.66
2023-01-10T10:37:44.371Z,98025.56
2023-01-10T10:42:51.014Z,98028.94
2023-01-10T10:48:00.971Z,98025.25
2023-01-10T10:53:05.057Z,98020.78
2023-01-10T10:58:08.134Z,98034.72
2023-01-10T11:03:21.994Z,98041.09
2023-01-10T11:08:24.550Z,98016.38
2023-01-10T11:13:35.464Z,98016.34
2023-01-10T11:18:38.584Z,98035.63
2023-01-10T11:23:40.332Z,98035.00
2023-01-10T11:28:45.974Z,98026.81
2023-01-10T11:33:48.215Z,98049.41
2023-01-10T11:39:04.372Z,98028.31
2023-01-10T11:44:17.409Z,98044.56
2023-01-10T11:49:34.648Z,98041.16
2023-01-10T11:54:36.527Z,98044.94
2023-01-10T11:59:39.226Z,98056.03
2023-01-10T12:04:47.616Z,98047.91
2023-01-10T12:10:00.944Z,98057.84
2023-01-10T12:15:29.617Z,98073.88
2023-01-10T12:20:34.889Z,98070.06
2023-01-10T12:25:46.444Z,98075.44
2023-01-10T12:30:52.949Z,98083.34
2023-01-10T12:35:59.693Z,98076.13
2023-01-10T12:41:03.238Z,98088.78
2023-01-10T12:46:43.580Z,98089.91
2023-01-10T12:51:48.276Z,98081.09
2023-01-10T12:56:50.960Z,98079.88
2023-01-10T13:01:56.867Z,98091.16
2023-01-10T13:07:01.290Z,98097.03
2023-01-10T13:12:21.416Z,98109.13
2023-01-10T13:17:32.450Z,98103.44
2023-01-10T13:22:36.271Z,98115.16
2023-01-10T13:27:38.229Z,98131.19
2023-01-10T13:32:40.118Z,98122.03
2023-01-10T13:37:44.843Z,98116.31
2023-01-10T13:43:18.929Z,98126.13
2023-01-10T13:48:26.728Z,98117.69
2023-01-10T13:53:28.482Z,98112.00
2023-01-10T13:59:00.027Z,98113.75
2023-01-10T14:04:02.163Z,98119.09
2023-01-10T14:09:24.151Z,98119.63
2023-01-10T14:14:33.245Z,98121.81
2023-01-10T14:19:35.263Z,98121.09
2023-01-10T14:24:40.073Z,98122.78
2023-01-10T14:29:58.386Z,98125.22
2023-01-10T14:35:03.609Z,98116.66
2023-01-10T14:40:30.057Z,98120.22
2023-01-10T14:45:45.437Z,98111.25
2023-01-10T14:50:47.608Z,98112.34
2023-01-10T14:55:49.524Z,98112.50
2023-01-10T15:00:53.931Z,98111.53
2023-01-10T15:05:57.570Z,98113.81
2023-01-10T15:11:06.695Z,98115.88
2023-01-10T15:16:19.606Z,98122.41
2023-01-10T15:21:22.325Z,98128.50
2023-01-10T15:26:27.248Z,98130.56
2023-01-10T15:31:30.731Z,98148.63
2023-01-10T15:36:32.937Z,98149.53
2023-01-10T15:41:35.669Z,98144.50
2023-01-10T15:46:54.536Z,98151.97
2023-01-10T15:51:57.719Z,98152.38
2023-01-10T15:57:07.921Z,98157.41
2023-01-10T16:02:13.626Z,98158.59
2023-01-10T16:07:25.683Z,98159.00
2023-01-10T16:12:57.382Z,98156.16
2023-01-10T16:17:59.214Z,98153.16
2023-01-10T16:23:02.263Z,98154.91
2023-01-10T16:28:04.450Z,98161.94
2023-01-10T16:33:12.264Z,98154.88
2023-01-10T16:38:15.849Z,98156.34
2023-01-10T16:43:18.022Z,98143.16
2023-01-10T16:48:20.881Z,98145.19
2023-01-10T16:53:22.749Z,98149.63
2023-01-10T16:58:24.727Z,98154.16
2023-01-10T17:03:27.019Z,98160.03
2023-01-10T17:08:29.155Z,98158.97
2023-01-10T17:13:34.393Z,98153.06
2023-01-10T17:18:39.276Z,98153.50
2023-01-10T17:23:42.042Z,98149.47
2023-01-10T17:28:49.784Z,98149.41
2023-01-10T17:33:51.782Z,98138.31
2023-01-10T17:38:53.584Z,98127.59
2023-01-10T17:43:55.435Z,98128.09
2023-01-10T17:48:57.591Z,98134.31
2023-01-10T17:53:59.876Z,98124.31
2023-01-10T17:59:01.757Z,98126.91
2023-01-10T18:04:03.720Z,98124.25
2023-01-10T18:09:06.273Z,98146.19
2023-01-10T18:14:26.565Z,98134.97
2023-01-10T18:19:30.049Z,98133.47
2023-01-10T18:24:31.821Z,98125.19
2023-01-10T18:29:33.822Z,98121.41
2023-01-10T18:34:35.612Z,98122.03
2023-01-10T18:39:37.433Z,98120.41
2023-01-10T18:44:39.905Z,98117.47
2023-01-10T18:49:41.698Z,98104.53
2023-01-10T18:54:43.615Z,98104.97
2023-01-10T18:59:45.605Z,98106.47
2023-01-10T19:04:47.490Z,98102.59
2023-01-10T19:09:49.323Z,98101.16
2023-01-10T19:14:51.528Z,98092.69
2023-01-10T19:19:54.752Z,98078.97
2023-01-10T19:24:56.517Z,98068.78
2023-01-10T19:29:58.451Z,98069.16
2023-01-10T19:35:00.437Z,98057.97
2023-01-10T19:40:02.381Z,98048.53
2023-01-10T19:45:06.102Z,98057.88
2023-01-10T19:50:08.195Z,98066.34
2023-01-10T19:55:10.054Z,98053.41
2023-01-10T20:00:12.114Z,98053.88
2023-01-10T20:05:13.888Z,98048.16
2023-01-10T20:10:15.832Z,98045.59
2023-01-10T20:15:17.693Z,98038.34
2023-01-10T20:20:20.632Z,98041.13
2023-01-10T20:25:22.216Z,98040.78
2023-01-10T20:30:23.894Z,98030.19
2023-01-10T20:35:25.603Z,98029.94
2023-01-10T20:40:27.219Z,98033.47
2023-01-10T20:45:28.817Z,98024.00
2023-01-10T20:50:30.500Z,98012.31
2023-01-10T20:55:35.019Z,98006.25
2023-01-10T21:00:36.679Z,98006.59
2023-01-10T21:05:38.864Z,97995.16
2023-01-10T21:10:43.977Z,97998.97
2023-01-10T21:15:47.138Z,97988.94
2023-01-10T21:20:48.766Z,97986.38
2023-01-10T21:25:51.811Z,97977.94
2023-01-10T21:30:53.638Z,97992.84
2023-01-10T21:36:00.336Z,97980.78
2023-01-10T21:41:07.105Z,97989.25
2023-01-10T21:46:08.675Z,97980.84
2023-01-10T21:51:10.324Z,97984.69
2023-01-10T21:56:11.980Z,97972.44
2023-01-10T22:01:14.799Z,97970.38
2023-01-10T22:06:16.489Z,97958.38
2023-01-10T22:11:18.333Z,97951.81
2023-01-10T22:16:20.052Z,97945.78
2023-01-10T22:21:21.913Z,97935.50
2023-01-10T22:26:23.625Z,97935.56
2023-01-10T22:31:25.320Z,97920.88
2023-01-10T22:36:27.043Z,97914.13
2023-01-10T22:41:28.887Z,97916.25
2023-01-10T22:46:30.480Z,97911.63
2023-01-10T22:51:35.468Z,97899.06
2023-01-10T22:56:37.356Z,97882.47
2023-01-10T23:01:39.868Z,97886.53
2023-01-10T23:06:41.543Z,97873.09
2023-01-10T23:11:43.182Z,97855.00
2023-01-10T23:16:45.046Z,97843.97
2023-01-10T23:21:46.734Z,97840.09
2023-01-10T23:26:49.941Z,97841.88
2023-01-10T23:31:51.606Z,97828.91
2023-01-10T23:36:53.319Z,97832.66
2023-01-10T23:41:54.993Z,97836.88
2023-01-10T23:46:56.662Z,97827.41
2023-01-10T23:51:58.295Z,97815.22
2023-01-10T23:57:00.049Z,97801.94
